This is the latest recevied weather packets stored in our database for station/object N5BTB-10. If no packets are shown the sender has not sent any weather packets the latest 10 day(s).
| Time | Temp. | Humidity | Pressure | Rain* | Wind** | Luminosity | Snow |
|---|---|---|---|---|---|---|---|
| 1778173205 | 12.78° C | 57% | - | 0 mm | - | - | - |
| 1778169605 | 11.67° C | 62% | - | 0 mm | - | - | - |
| 1778166005 | 10° C | 68% | - | 0 mm | - | - | - |
| 1778162405 | 9.44° C | 74% | - | 0 mm | - | - | - |
| 1778158805 | 8.89° C | 75% | - | 0 mm | - | - | - |
| 1778155205 | 8.89° C | 78% | - | 0 mm | - | - | - |
| 1778151605 | 9.44° C | 76% | - | 0 mm | - | - | - |
| 1778148005 | 9.44° C | 76% | - | 0 mm | - | - | - |
| 1778144405 | 9.44° C | 77% | - | 0 mm | - | - | - |
| 1778140805 | 10.56° C | 74% | - | 0 mm | - | - | - |
| 1778137205 | 11.11° C | 75% | - | 0 mm | - | - | - |
| 1778133605 | 11.67° C | 77% | - | 0 mm | - | - | - |
| 1778130005 | 11.67° C | 76% | - | 0 mm | - | - | - |
| 1778126405 | 12.22° C | 74% | - | 0 mm | - | - | - |
| 1778122805 | 12.78° C | 72% | - | 0 mm | - | - | - |
| 1778119205 | 13.33° C | 72% | - | 0 mm | - | - | - |
| 1778115605 | 14.44° C | 70% | - | 0 mm | - | - | - |
| 1778112005 | 15.56° C | 67% | - | 0 mm | - | - | - |
| 1778108405 | 15° C | 68% | - | 0 mm | - | - | - |
| 1778104805 | 16.67° C | 65% | - | 0 mm | - | - | - |
| 1778101206 | 18.33° C | 62% | - | 0 mm | - | - | - |
| 1778097606 | 15° C | 68% | - | 0 mm | - | - | - |
| 1778094006 | 15.56° C | 66% | - | 0 mm | - | - | - |
| 1778090406 | 14.44° C | 66% | - | 0 mm | - | - | - |
| 1778086806 | 13.33° C | 71% | - | 0 mm | - | - | - |
* Rain latest hour (hover to see other rain measurements)
** Current wind speed in m/s (hover to see current wind gust speed)